Time;durP1;ratioP1;P1;durP2;ratioP2;P2;SDS_P1;SDS_P2;PMS_P1;PMS_P2;Temp;Humidity;BMP_temperature;BMP_pressure;BME280_temperature;BME280_humidity;BME280_pressure;Samples;Min_cycle;Max_cycle;Signal;HPM_P1;HPM_P2
2022/08/23 00:00:41;;;;;;;5.15;2.63;;;16.90;99.90;;;;;;5050079;28;20128;-72
2022/08/23 00:03:07;;;;;;;3.90;1.50;;;17.00;99.90;;;;;;5034964;28;20074;-72
2022/08/23 00:05:33;;;;;;;1.90;1.10;;;17.10;99.90;;;;;;5035080;28;20041;-73
2022/08/23 00:07:59;;;;;;;1.98;1.20;;;17.10;99.90;;;;;;5031556;28;20045;-72
2022/08/23 00:10:24;;;;;;;2.85;1.55;;;17.10;99.90;;;;;;5038310;28;20454;-72
2022/08/23 00:12:50;;;;;;;3.30;1.50;;;17.10;99.90;;;;;;5043271;28;20132;-72
2022/08/23 00:15:18;;;;;;;2.60;1.77;;;17.00;99.90;;;;;;5050643;28;20057;-72
2022/08/23 00:17:43;;;;;;;4.03;2.00;;;17.10;99.90;;;;;;5047755;28;20102;-72
2022/08/23 00:20:13;;;;;;;5.22;1.95;;;16.90;99.90;;;;;;5037345;28;20132;-72
2022/08/23 00:22:39;;;;;;;3.30;2.22;;;16.80;99.90;;;;;;5042613;28;20044;-72
2022/08/23 00:25:07;;;;;;;4.72;2.13;;;16.80;99.90;;;;;;5017872;28;20547;-72
2022/08/23 00:27:34;;;;;;;4.15;2.00;;;16.80;99.90;;;;;;5017901;28;20042;-73
2022/08/23 00:30:00;;;;;;;4.15;2.20;;;16.60;99.90;;;;;;5034456;28;20125;-72
2022/08/23 00:32:30;;;;;;;4.30;2.03;;;16.70;99.90;;;;;;5034549;28;20402;-72
2022/08/23 00:34:58;;;;;;;5.82;2.25;;;16.70;99.90;;;;;;5050892;28;20152;-72
2022/08/23 00:37:25;;;;;;;5.13;2.50;;;16.50;99.90;;;;;;5017876;28;20140;-71
2022/08/23 00:39:51;;;;;;;6.32;2.90;;;16.50;99.90;;;;;;5034416;28;20129;-72
2022/08/23 00:48:14;;;;;;;5.72;3.28;;;16.60;99.90;;;;;;5052893;28;20124;-73
2022/08/23 00:50:43;;;;;;;6.20;3.35;;;16.50;99.90;;;;;;5053903;28;20056;-73
2022/08/23 00:53:13;;;;;;;5.45;3.05;;;16.50;99.90;;;;;;5053732;28;20051;-73
2022/08/23 00:55:41;;;;;;;4.57;2.25;;;16.50;99.90;;;;;;5052940;28;20488;-73
2022/08/23 00:58:08;;;;;;;6.25;2.83;;;16.50;99.90;;;;;;5052967;28;20041;-73
2022/08/23 01:00:34;;;;;;;3.30;1.92;;;16.50;99.90;;;;;;5031177;28;20045;-74
2022/08/23 01:03:02;;;;;;;2.03;1.30;;;16.50;99.90;;;;;;5033840;28;20056;-74
2022/08/23 01:05:34;;;;;;;2.35;1.08;;;16.50;99.90;;;;;;5045035;28;20040;-74
2022/08/23 01:08:00;;;;;;;1.80;1.20;;;16.50;99.90;;;;;;5053749;28;20045;-73
2022/08/23 01:10:30;;;;;;;2.03;1.30;;;16.50;99.90;;;;;;5053607;28;20048;-74
2022/08/23 01:13:04;;;;;;;2.70;1.17;;;16.50;99.90;;;;;;5022908;28;20486;-72
2022/08/23 01:15:36;;;;;;;1.88;0.90;;;16.40;99.90;;;;;;5058900;28;20053;-73
2022/08/23 01:18:06;;;;;;;0.98;0.88;;;16.40;99.90;;;;;;5053451;28;20127;-73
2022/08/23 01:20:59;;;;;;;1.13;1.00;;;16.30;99.90;;;;;;5037067;28;20064;-73
2022/08/23 01:23:42;;;;;;;;;;;16.20;99.90;;;;;;5033189;28;20482;-72
2022/08/23 01:26:09;;;;;;;1.20;0.60;;;16.20;99.90;;;;;;5066075;28;19932;-74
2022/08/23 01:28:35;;;;;;;1.45;0.70;;;16.30;99.90;;;;;;5053302;28;20071;-73
2022/08/23 01:31:01;;;;;;;1.20;0.80;;;16.30;99.90;;;;;;5036497;28;20048;-72
2022/08/23 01:33:27;;;;;;;0.82;0.60;;;16.20;99.90;;;;;;5052339;28;20029;-73
2022/08/23 01:35:55;;;;;;;0.50;0.50;;;16.20;99.90;;;;;;5047210;28;20041;-73
2022/08/23 01:38:22;;;;;;;0.95;0.50;;;16.20;99.90;;;;;;5036375;28;20401;-73
2022/08/23 01:40:49;;;;;;;0.70;0.70;;;16.20;99.90;;;;;;5053202;28;20044;-73
2022/08/23 01:43:18;;;;;;;2.28;1.30;;;16.20;99.90;;;;;;5028038;28;20044;-73
2022/08/23 01:45:45;;;;;;;1.77;1.10;;;16.00;99.90;;;;;;5034552;28;20068;-72
2022/08/23 01:48:11;;;;;;;3.30;1.42;;;15.90;99.90;;;;;;5052932;28;20040;-72
2022/08/23 01:50:37;;;;;;;1.67;1.13;;;15.80;99.90;;;;;;5053106;28;20139;-72
2022/08/23 01:53:02;;;;;;;4.05;1.58;;;15.80;99.90;;;;;;5051891;28;20136;-73
2022/08/23 01:55:28;;;;;;;3.22;1.48;;;15.80;99.90;;;;;;5050023;28;20559;-73
2022/08/23 01:57:57;;;;;;;1.75;0.77;;;15.80;99.90;;;;;;5051611;28;20412;-72
2022/08/23 02:00:29;;;;;;;2.22;1.00;;;15.80;99.90;;;;;;5036325;28;20029;-73
2022/08/23 02:02:55;;;;;;;;;;;15.80;99.90;;;;;;5053090;28;20037;-72
2022/08/23 02:05:20;;;;;;;3.05;0.70;;;15.80;99.90;;;;;;5058971;28;19921;-72
2022/08/23 02:07:46;;;;;;;0.60;0.60;;;15.70;99.90;;;;;;5049098;28;20045;-72
2022/08/23 02:10:13;;;;;;;2.90;1.20;;;15.70;99.90;;;;;;5040356;28;20052;-72
2022/08/23 02:12:39;;;;;;;4.28;1.30;;;15.70;99.90;;;;;;5039728;28;20052;-73
2022/08/23 02:15:05;;;;;;;0.60;0.60;;;15.60;99.90;;;;;;5028003;28;20053;-73
2022/08/23 02:17:31;;;;;;;1.33;0.60;;;15.60;99.90;;;;;;5032417;28;20094;-72
2022/08/23 02:19:56;;;;;;;1.17;0.60;;;15.70;99.90;;;;;;5032367;28;20120;-73
2022/08/23 02:22:22;;;;;;;1.58;0.70;;;15.70;99.90;;;;;;5042745;28;20106;-72
2022/08/23 02:24:48;;;;;;;2.83;1.00;;;15.60;99.90;;;;;;5046902;28;20120;-73
2022/08/23 02:27:15;;;;;;;1.85;1.40;;;15.60;99.90;;;;;;5015750;28;20490;-73
2022/08/23 02:29:44;;;;;;;7.50;3.40;;;15.60;99.90;;;;;;5015778;28;20115;-73
2022/08/23 02:32:11;;;;;;;7.20;4.20;;;15.60;99.90;;;;;;5039664;28;20080;-72
2022/08/23 02:34:37;;;;;;;6.40;3.90;;;15.50;99.90;;;;;;5034504;28;20540;-73
2022/08/23 02:37:02;;;;;;;7.20;3.80;;;15.40;99.90;;;;;;5035374;28;20114;-72
2022/08/23 02:39:29;;;;;;;2.45;1.10;;;15.40;99.90;;;;;;5052271;28;20482;-72
2022/08/23 02:41:54;;;;;;;0.68;0.60;;;15.50;99.90;;;;;;5048332;28;20037;-72
2022/08/23 02:44:20;;;;;;;1.33;0.70;;;15.50;99.90;;;;;;5018327;28;20060;-73
2022/08/23 02:46:46;;;;;;;2.10;1.33;;;15.50;99.90;;;;;;5050806;28;20033;-72
2022/08/23 02:49:12;;;;;;;3.38;1.95;;;15.40;99.90;;;;;;5047220;28;20059;-72
2022/08/23 02:51:38;;;;;;;2.72;1.40;;;15.40;99.90;;;;;;5036632;28;20413;-72
2022/08/23 02:54:05;;;;;;;0.40;0.40;;;15.40;99.90;;;;;;5031807;28;20056;-72
2022/08/23 02:56:31;;;;;;;0.30;0.30;;;15.50;99.90;;;;;;5043724;28;20132;-72
2022/08/23 02:58:58;;;;;;;1.10;0.40;;;15.50;99.90;;;;;;5052069;28;20044;-73
2022/08/23 03:01:29;;;;;;;1.10;0.60;;;15.50;99.90;;;;;;5045403;28;20046;-73
2022/08/23 03:03:56;;;;;;;0.80;0.60;;;15.40;99.90;;;;;;5048312;28;20052;-73
2022/08/23 03:06:22;;;;;;;2.10;0.77;;;15.40;99.90;;;;;;5042464;28;20041;-73
2022/08/23 03:08:47;;;;;;;1.63;0.73;;;15.40;99.90;;;;;;5051007;28;20439;-73
2022/08/23 03:11:17;;;;;;;1.33;0.57;;;15.30;99.90;;;;;;5052248;28;20477;-73
2022/08/23 03:13:44;;;;;;;1.05;0.90;;;15.30;99.90;;;;;;5050564;28;20057;-73
2022/08/23 03:16:11;;;;;;;1.38;1.00;;;15.20;99.90;;;;;;5033996;28;20080;-73
2022/08/23 03:18:37;;;;;;;1.15;1.00;;;15.10;99.90;;;;;;5053272;28;20045;-72
2022/08/23 03:21:04;;;;;;;2.78;1.30;;;15.10;99.90;;;;;;5055007;28;20405;-73
2022/08/23 03:23:31;;;;;;;1.70;1.15;;;15.10;99.90;;;;;;5055902;28;20133;-73
2022/08/23 03:25:58;;;;;;;2.72;1.50;;;15.00;99.90;;;;;;5053913;28;20041;-73
2022/08/23 03:28:24;;;;;;;2.22;1.52;;;15.10;99.90;;;;;;5041726;28;20497;-73
2022/08/23 03:30:50;;;;;;;4.00;1.63;;;15.00;99.90;;;;;;5044666;28;20045;-72
2022/08/23 03:33:17;;;;;;;2.42;1.40;;;15.00;99.90;;;;;;5055375;28;20166;-72
2022/08/23 03:35:42;;;;;;;2.15;1.33;;;15.00;99.90;;;;;;5054459;28;20048;-72
2022/08/23 03:38:08;;;;;;;1.05;0.82;;;15.00;99.90;;;;;;5055219;28;20045;-72
2022/08/23 03:40:34;;;;;;;1.52;1.10;;;15.10;99.90;;;;;;5038380;28;20033;-72
2022/08/23 03:43:00;;;;;;;1.33;1.00;;;15.00;99.90;;;;;;5037602;28;20040;-72
2022/08/23 03:45:26;;;;;;;2.20;1.23;;;15.00;99.90;;;;;;5055825;28;20087;-72
2022/08/23 03:47:52;;;;;;;2.38;1.40;;;15.00;99.90;;;;;;5037808;28;20029;-72
2022/08/23 03:50:18;;;;;;;2.88;1.45;;;15.00;99.90;;;;;;5038528;28;20095;-71
2022/08/23 03:52:44;;;;;;;2.85;1.23;;;14.90;99.90;;;;;;5037408;28;20076;-71
2022/08/23 03:55:09;;;;;;;3.10;1.20;;;14.90;99.90;;;;;;5054077;28;20062;-72
2022/08/23 03:57:35;;;;;;;2.05;1.00;;;14.90;99.90;;;;;;5053223;28;20040;-72
2022/08/23 04:00:01;;;;;;;2.17;0.85;;;14.90;99.90;;;;;;5038371;28;20041;-72
2022/08/23 04:02:26;;;;;;;1.33;0.80;;;14.90;99.90;;;;;;5040317;28;20039;-72
2022/08/23 04:04:52;;;;;;;3.30;1.10;;;14.90;99.90;;;;;;5075135;28;20038;-72
2022/08/23 04:07:21;;;;;;;3.13;1.30;;;14.80;99.90;;;;;;5036829;28;20040;-72
2022/08/23 04:09:46;;;;;;;3.55;1.60;;;14.80;99.90;;;;;;5054799;28;20045;-72
2022/08/23 04:12:12;;;;;;;3.05;1.58;;;14.80;99.90;;;;;;5035752;28;20041;-72
2022/08/23 04:14:38;;;;;;;3.20;1.40;;;14.80;99.90;;;;;;5054614;28;20136;-73
2022/08/23 04:17:04;;;;;;;2.90;1.40;;;14.70;99.90;;;;;;5053129;28;20135;-72
2022/08/23 04:19:30;;;;;;;2.85;1.90;;;14.70;99.90;;;;;;5057792;28;20040;-72
2022/08/23 04:21:56;;;;;;;3.58;2.00;;;14.70;99.90;;;;;;5069820;28;20033;-72
2022/08/23 04:24:21;;;;;;;3.67;2.33;;;14.60;99.90;;;;;;5050295;28;20075;-72
2022/08/23 04:26:47;;;;;;;4.57;2.40;;;14.50;99.90;;;;;;5033856;28;20045;-72
2022/08/23 04:29:15;;;;;;;3.97;2.63;;;14.40;99.90;;;;;;5050773;28;20106;-72
2022/08/23 04:31:42;;;;;;;5.10;2.90;;;14.40;99.90;;;;;;5048036;28;20052;-72
2022/08/23 04:34:08;;;;;;;5.28;3.15;;;14.50;99.90;;;;;;5054450;28;20442;-72
2022/08/23 04:36:38;;;;;;;4.55;3.10;;;14.50;99.90;;;;;;5056961;28;20147;-72
2022/08/23 04:39:04;;;;;;;4.00;2.33;;;14.40;99.90;;;;;;5052403;28;20040;-72
2022/08/23 04:44:14;;;;;;;6.28;3.88;;;14.40;99.90;;;;;;5053398;28;20049;-72
2022/08/23 04:46:40;;;;;;;5.47;3.35;;;14.40;99.90;;;;;;5037586;28;20128;-73
2022/08/23 04:49:06;;;;;;;5.50;3.33;;;14.40;99.90;;;;;;5052839;28;20171;-73
2022/08/23 04:51:31;;;;;;;6.03;2.90;;;14.40;99.90;;;;;;5052238;28;20406;-72
2022/08/23 04:53:57;;;;;;;6.88;3.15;;;14.30;99.90;;;;;;5054488;28;20033;-72
2022/08/23 04:56:22;;;;;;;4.25;2.80;;;14.40;99.90;;;;;;5053322;28;20044;-72
2022/08/23 04:58:48;;;;;;;5.30;3.33;;;14.40;99.90;;;;;;5033796;28;20518;-72
2022/08/23 05:01:15;;;;;;;6.32;3.75;;;14.40;99.90;;;;;;5019223;28;20405;-73
2022/08/23 05:03:40;;;;;;;7.85;3.30;;;14.40;99.90;;;;;;5052977;28;20087;-72
2022/08/23 05:06:06;;;;;;;5.72;2.70;;;14.50;99.90;;;;;;5053027;28;20033;-72
2022/08/23 05:08:32;;;;;;;4.03;2.67;;;14.50;99.90;;;;;;5082954;28;20064;-72
2022/08/23 05:11:06;;;;;;;4.85;2.80;;;14.50;99.90;;;;;;5031161;28;20115;-73
2022/08/23 05:13:32;;;;;;;4.72;2.65;;;14.40;99.90;;;;;;5031261;28;20409;-72
2022/08/23 05:15:59;;;;;;;5.65;3.60;;;14.40;99.90;;;;;;5033588;28;20446;-73
2022/08/23 05:18:25;;;;;;;6.22;3.33;;;14.40;99.90;;;;;;5026396;28;20040;-72
2022/08/23 05:20:51;;;;;;;6.32;3.38;;;14.50;99.90;;;;;;5051052;28;20048;-73
2022/08/23 05:23:17;;;;;;;6.43;3.85;;;14.40;99.90;;;;;;5051852;28;20118;-72
2022/08/23 05:25:48;;;;;;;4.28;2.97;;;14.50;99.90;;;;;;5068901;28;20493;-72
2022/08/23 05:28:24;;;;;;;5.03;3.03;;;14.60;99.90;;;;;;5036424;28;20127;-72
2022/08/23 05:30:58;;;;;;;4.55;2.92;;;14.50;99.90;;;;;;5034542;28;20045;-72
2022/08/23 05:33:25;;;;;;;5.30;3.00;;;14.50;99.90;;;;;;5048368;28;20439;-72
2022/08/23 05:35:51;;;;;;;6.60;3.95;;;14.50;99.90;;;;;;5051732;28;20048;-72
2022/08/23 05:38:17;;;;;;;7.03;4.25;;;14.60;99.90;;;;;;5063709;28;20045;-72
2022/08/23 05:40:43;;;;;;;5.55;3.67;;;14.60;99.90;;;;;;5033649;28;20064;-72
2022/08/23 05:43:09;;;;;;;6.88;4.57;;;14.70;99.90;;;;;;5037465;28;20043;-72
2022/08/23 05:45:35;;;;;;;5.82;3.60;;;14.70;99.90;;;;;;5048464;28;20091;-72
2022/08/23 05:48:00;;;;;;;6.75;4.32;;;14.70;99.90;;;;;;5030331;28;20041;-72
2022/08/23 05:50:26;;;;;;;7.03;4.30;;;14.80;99.90;;;;;;5058093;28;20152;-72
2022/08/23 05:52:52;;;;;;;8.48;6.10;;;14.90;99.90;;;;;;5051707;28;20416;-72
2022/08/23 05:55:17;;;;;;;8.52;5.82;;;15.00;99.90;;;;;;5039337;28;20124;-72
2022/08/23 05:57:43;;;;;;;13.23;9.60;;;15.10;99.90;;;;;;5042366;28;20087;-72
2022/08/23 06:00:13;;;;;;;11.88;9.38;;;15.20;99.90;;;;;;5043989;28;20033;-72
2022/08/23 06:02:38;;;;;;;12.48;9.50;;;15.30;99.90;;;;;;5045934;28;20037;-72
2022/08/23 06:05:04;;;;;;;15.45;12.18;;;15.40;99.90;;;;;;5034237;28;20041;-72
2022/08/23 06:07:32;;;;;;;13.80;10.60;;;15.50;99.90;;;;;;5050398;28;20563;-72
2022/08/23 06:09:57;;;;;;;13.80;12.18;;;15.60;99.90;;;;;;5034134;28;20122;-72
2022/08/23 06:12:24;;;;;;;12.32;10.30;;;15.80;99.90;;;;;;5034329;28;20051;-72
2022/08/23 06:14:49;;;;;;;6.78;4.30;;;15.90;99.90;;;;;;5080292;28;20099;-74
2022/08/23 06:17:15;;;;;;;12.70;9.38;;;16.00;99.90;;;;;;5029680;28;20041;-72
2022/08/23 06:19:40;;;;;;;16.00;11.70;;;16.20;99.90;;;;;;5040975;28;20044;-72
2022/08/23 06:22:06;;;;;;;14.82;13.20;;;16.30;99.90;;;;;;5028204;28;20044;-72
2022/08/23 06:24:32;;;;;;;15.88;13.75;;;16.50;99.90;;;;;;5028995;28;20406;-72
2022/08/23 06:26:58;;;;;;;15.32;13.50;;;16.60;99.90;;;;;;5083050;28;20131;-72
2022/08/23 06:29:23;;;;;;;17.05;15.23;;;16.80;99.90;;;;;;5072125;28;20040;-72
2022/08/23 06:31:51;;;;;;;14.95;12.75;;;17.00;99.90;;;;;;5055509;28;20501;-72
2022/08/23 06:34:24;;;;;;;15.52;13.43;;;17.20;99.90;;;;;;5072148;28;20044;-72
2022/08/23 06:36:55;;;;;;;16.65;13.75;;;17.30;99.90;;;;;;5070329;28;20396;-72
2022/08/23 06:39:24;;;;;;;14.57;13.05;;;17.50;99.90;;;;;;5064140;28;20041;-72
2022/08/23 06:41:51;;;;;;;14.90;13.27;;;17.60;99.90;;;;;;5052028;28;20041;-72
2022/08/23 06:44:18;;;;;;;15.82;13.77;;;17.60;99.90;;;;;;5068730;28;20116;-71
2022/08/23 06:46:44;;;;;;;14.50;13.00;;;17.60;99.90;;;;;;5035363;28;20037;-72
2022/08/23 06:49:10;;;;;;;16.38;13.05;;;17.70;99.90;;;;;;5035285;28;20087;-72
2022/08/23 06:51:37;;;;;;;13.60;12.20;;;17.80;99.90;;;;;;5033035;28;20029;-71
2022/08/23 06:54:07;;;;;;;14.07;12.60;;;17.90;99.90;;;;;;5036508;28;20033;-72
2022/08/23 06:56:34;;;;;;;13.23;11.85;;;18.00;99.90;;;;;;5048359;28;20026;-72
2022/08/23 06:59:03;;;;;;;13.60;11.50;;;18.30;99.90;;;;;;5015400;28;20513;-71
2022/08/23 07:01:42;;;;;;;14.13;11.00;;;18.40;99.90;;;;;;5031846;28;20510;-72
2022/08/23 07:04:10;;;;;;;12.70;11.23;;;18.40;99.90;;;;;;5032159;28;20044;-72
2022/08/23 07:06:36;;;;;;;14.27;11.02;;;18.50;99.90;;;;;;5031890;28;20033;-72
2022/08/23 07:09:03;;;;;;;12.65;11.30;;;18.70;99.90;;;;;;5031714;28;20120;-72
2022/08/23 07:11:32;;;;;;;12.43;10.40;;;18.80;99.90;;;;;;5045818;28;20068;-72
2022/08/23 07:13:59;;;;;;;13.27;10.02;;;18.80;99.90;;;;;;5041171;28;20456;-72
2022/08/23 07:16:32;;;;;;;11.13;9.27;;;19.00;99.90;;;;;;5034231;28;20041;-72
2022/08/23 07:18:57;;;;;;;13.60;8.80;;;19.10;99.90;;;;;;5051971;28;20572;-72
2022/08/23 07:21:23;;;;;;;11.95;8.20;;;19.20;99.90;;;;;;5051542;28;20075;-72
2022/08/23 07:23:49;;;;;;;11.75;7.82;;;19.30;99.90;;;;;;5034979;28;20451;-72
2022/08/23 07:26:16;;;;;;;10.25;6.70;;;19.50;99.90;;;;;;5034971;28;20078;-71
2022/08/23 07:28:41;;;;;;;8.95;6.35;;;19.60;99.90;;;;;;5045267;28;20053;-72
2022/08/23 07:31:13;;;;;;;12.48;5.97;;;19.80;99.90;;;;;;5034162;28;20502;-72
2022/08/23 07:33:39;;;;;;;9.70;5.78;;;19.90;99.90;;;;;;5015144;28;20493;-72
2022/08/23 07:36:06;;;;;;;7.18;5.00;;;20.00;99.90;;;;;;5031531;28;20521;-72
2022/08/23 07:38:33;;;;;;;8.77;4.70;;;20.10;99.90;;;;;;5015040;28;20073;-71
2022/08/23 07:41:00;;;;;;;8.40;4.50;;;20.30;99.90;;;;;;5014878;28;20034;-77
2022/08/23 07:43:25;;;;;;;9.38;5.07;;;20.40;99.90;;;;;;5049984;28;20052;-75
2022/08/23 07:45:51;;;;;;;7.88;4.55;;;20.50;99.90;;;;;;5046061;28;20035;-72
2022/08/23 07:48:16;;;;;;;9.05;4.60;;;20.60;99.90;;;;;;5047235;28;20506;-72
2022/08/23 07:50:53;;;;;;;9.13;4.88;;;20.80;99.90;;;;;;5048034;28;20041;-72
2022/08/23 07:53:19;;;;;;;8.40;4.45;;;20.90;99.90;;;;;;5050281;28;20033;-71
2022/08/23 07:55:45;;;;;;;7.80;4.30;;;21.10;99.90;;;;;;5059905;28;20043;-72
2022/08/23 07:58:10;;;;;;;7.80;4.00;;;21.20;99.90;;;;;;5069682;28;20043;-72
2022/08/23 08:00:36;;;;;;;8.30;4.75;;;21.40;99.90;;;;;;5045590;28;20525;-72
2022/08/23 08:03:01;;;;;;;8.40;4.22;;;21.40;99.90;;;;;;5031561;28;20040;-72
2022/08/23 08:05:27;;;;;;;10.75;4.70;;;21.50;99.90;;;;;;5041917;28;20075;-71
2022/08/23 08:07:52;;;;;;;8.88;4.22;;;21.60;99.90;;;;;;5033508;28;20551;-72
2022/08/23 08:10:18;;;;;;;8.13;4.40;;;21.70;99.90;;;;;;5036220;28;20116;-72
2022/08/23 08:12:44;;;;;;;7.85;4.30;;;21.90;99.90;;;;;;5053423;28;20075;-72
2022/08/23 08:15:09;;;;;;;7.32;3.97;;;21.90;99.90;;;;;;5052803;28;20437;-72
2022/08/23 08:17:35;;;;;;;7.70;4.20;;;21.90;99.90;;;;;;5067825;28;20041;-72
2022/08/23 08:20:01;;;;;;;9.45;4.15;;;21.90;99.90;;;;;;5037215;28;20095;-72
2022/08/23 08:22:26;;;;;;;9.05;4.45;;;22.00;99.90;;;;;;5049905;28;20065;-72
2022/08/23 08:24:52;;;;;;;7.78;4.10;;;22.00;99.90;;;;;;5036278;28;20040;-72
2022/08/23 08:27:17;;;;;;;8.88;3.92;;;22.10;99.90;;;;;;5033874;28;20045;-72
2022/08/23 08:29:43;;;;;;;8.80;4.05;;;22.20;99.90;;;;;;5046636;28;20098;-72
2022/08/23 08:32:09;;;;;;;7.18;4.00;;;22.40;99.90;;;;;;5053710;28;20436;-72
2022/08/23 08:34:35;;;;;;;7.47;4.18;;;22.40;99.90;;;;;;5041465;28;20413;-72
2022/08/23 08:37:00;;;;;;;7.13;3.80;;;22.60;99.90;;;;;;5050237;28;20056;-72
2022/08/23 08:39:29;;;;;;;8.95;4.07;;;22.70;99.90;;;;;;5017812;28;20029;-72
2022/08/23 08:42:25;;;;;;;7.22;3.90;;;22.80;99.90;;;;;;5035818;28;20041;-72
2022/08/23 08:44:59;;;;;;;7.72;4.00;;;22.80;99.90;;;;;;5053581;28;20037;-72
2022/08/23 08:47:39;;;;;;;5.85;3.72;;;22.90;99.90;;;;;;5037448;28;20052;-72
2022/08/23 08:50:05;;;;;;;8.13;3.75;;;23.00;99.90;;;;;;5036587;28;20045;-72
2022/08/23 08:52:43;;;;;;;7.20;4.05;;;23.10;99.90;;;;;;5026116;28;20041;-72
2022/08/23 08:55:13;;;;;;;7.40;3.83;;;23.20;99.90;;;;;;5079062;28;20044;-72
2022/08/23 08:57:47;;;;;;;8.50;3.90;;;23.30;99.90;;;;;;5048908;28;20065;-72
2022/08/23 09:00:18;;;;;;;6.80;3.38;;;23.30;99.90;;;;;;5055195;28;20037;-72
2022/08/23 09:02:44;;;;;;;8.37;3.97;;;23.30;99.90;;;;;;5043309;28;20036;-72
2022/08/23 09:05:13;;;;;;;6.75;3.55;;;23.40;99.90;;;;;;5046907;28;20457;-72
2022/08/23 09:08:03;;;;;;;7.22;3.50;;;23.50;99.90;;;;;;5034034;28;20134;-78
2022/08/23 09:10:51;;;;;;;8.48;3.65;;;23.50;99.90;;;;;;5052234;28;20076;-72
2022/08/23 09:13:39;;;;;;;6.32;3.78;;;23.70;99.90;;;;;;5049781;28;20042;-72
2022/08/23 09:16:46;;;;;;;8.52;3.90;;;23.80;99.90;;;;;;5036160;28;20107;-72
2022/08/23 09:19:11;;;;;;;9.02;4.00;;;24.00;99.90;;;;;;5037071;28;20517;-72
2022/08/23 09:21:45;;;;;;;8.95;3.72;;;24.00;99.90;;;;;;5058310;28;20036;-72
2022/08/23 09:24:12;;;;;;;9.02;3.72;;;24.00;99.90;;;;;;5035232;28;20494;-72
2022/08/23 09:26:38;;;;;;;6.50;3.63;;;24.00;99.90;;;;;;5061226;28;20045;-72
2022/08/23 09:29:22;;;;;;;7.78;3.40;;;24.00;99.90;;;;;;5035025;28;20036;-72
2022/08/23 09:31:51;;;;;;;9.63;3.83;;;24.10;99.90;;;;;;5046307;28;20543;-72
2022/08/23 09:34:39;;;;;;;7.45;3.70;;;24.10;99.90;;;;;;5061476;28;20037;-72
2022/08/23 09:37:26;;;;;;;8.73;3.95;;;24.20;99.90;;;;;;5051999;28;20049;-72
2022/08/23 09:40:14;;;;;;;6.07;3.53;;;24.30;99.90;;;;;;5035457;28;20043;-72
2022/08/23 09:42:41;;;;;;;6.78;3.63;;;24.40;99.90;;;;;;5049745;28;20578;-72
2022/08/23 09:45:26;;;;;;;5.53;3.20;;;24.50;99.90;;;;;;5034877;28;20394;-72
2022/08/23 09:47:52;;;;;;;5.80;3.40;;;24.50;99.90;;;;;;5021460;28;20037;-72
2022/08/23 09:50:32;;;;;;;8.80;4.18;;;24.60;99.90;;;;;;5046249;28;20037;-72
2022/08/23 09:53:06;;;;;;;7.22;3.97;;;24.70;99.90;;;;;;5044209;28;20045;-72
2022/08/23 09:55:47;;;;;;;7.78;3.50;;;24.80;99.90;;;;;;5033209;28;20045;-72
2022/08/23 09:58:35;;;;;;;9.27;3.72;;;24.90;99.90;;;;;;5024344;28;20034;-72
2022/08/23 10:01:06;;;;;;;10.25;3.78;;;25.10;99.90;;;;;;5046452;28;20048;-72
2022/08/23 10:03:32;;;;;;;;;;;25.00;99.90;;;;;;5038621;28;20037;-71
2022/08/23 10:05:59;;;;;;;6.70;3.40;;;25.10;99.90;;;;;;5034177;28;20007;-72
2022/08/23 10:08:31;;;;;;;8.63;3.50;;;25.20;99.90;;;;;;5035417;28;20120;-72
2022/08/23 10:11:04;;;;;;;5.80;3.38;;;25.10;99.90;;;;;;5051982;28;20033;-72
2022/08/23 10:13:30;;;;;;;6.47;3.40;;;25.20;99.90;;;;;;5051197;28;20505;-72
2022/08/23 10:16:23;;;;;;;7.65;3.40;;;25.30;99.90;;;;;;5035774;28;20041;-72
2022/08/23 10:19:16;;;;;;;7.13;3.55;;;25.30;99.90;;;;;;5068431;28;20401;-72
2022/08/23 10:21:56;;;;;;;6.60;3.13;;;25.40;99.90;;;;;;5031818;28;20052;-72
2022/08/23 10:24:36;;;;;;;6.75;3.20;;;25.60;99.90;;;;;;5045819;28;20037;-72
2022/08/23 10:30:15;;;;;;;7.22;3.50;;;25.70;99.90;;;;;;5056342;28;20492;-72
2022/08/23 10:33:11;;;;;;;8.15;3.45;;;25.80;99.90;;;;;;5048111;28;20033;-72
2022/08/23 10:36:03;;;;;;;7.35;3.13;;;25.90;99.90;;;;;;5040001;28;20057;-72
2022/08/23 10:38:57;;;;;;;7.13;3.65;;;26.00;99.90;;;;;;5023763;28;20048;-72
2022/08/23 10:41:55;;;;;;;6.63;3.13;;;25.90;99.90;;;;;;5020642;28;20098;-71
2022/08/23 10:44:38;;;;;;;6.95;3.60;;;26.00;99.90;;;;;;5049261;28;20440;-72
2022/08/23 10:47:28;;;;;;;8.15;3.15;;;25.90;99.90;;;;;;5051080;28;20076;-71
2022/08/23 10:49:56;;;;;;;8.27;3.47;;;25.90;99.90;;;;;;5066187;28;20045;-79
2022/08/23 10:52:29;;;;;;;5.30;3.53;;;25.80;99.90;;;;;;5036086;28;20041;-79
2022/08/23 10:55:04;;;;;;;5.07;3.15;;;25.90;99.90;;;;;;5064338;28;20041;-79
2022/08/23 10:57:35;;;;;;;7.65;3.30;;;25.90;99.90;;;;;;5046367;28;20044;-79
2022/08/23 11:00:05;;;;;;;6.95;3.30;;;25.80;99.90;;;;;;5050252;28;20048;-79
2022/08/23 11:02:41;;;;;;;7.18;3.30;;;26.00;99.90;;;;;;5030638;28;20041;-79
2022/08/23 11:05:29;;;;;;;7.28;3.53;;;26.10;99.90;;;;;;5042634;28;20124;-79
2022/08/23 11:08:10;;;;;;;8.00;3.17;;;26.00;99.90;;;;;;5049553;28;20079;-79
2022/08/23 11:10:38;;;;;;;8.07;3.53;;;26.10;99.90;;;;;;5023937;28;20502;-72
2022/08/23 11:13:20;;;;;;;6.18;3.03;;;26.20;99.90;;;;;;5050969;28;20045;-72
2022/08/23 11:16:05;;;;;;;5.60;3.22;;;26.20;99.80;;;;;;5030302;28;20050;-72
2022/08/23 11:18:40;;;;;;;7.70;3.22;;;26.20;99.90;;;;;;5031075;28;20120;-73
2022/08/23 11:21:24;;;;;;;8.02;3.10;;;26.30;99.90;;;;;;5048203;28;20107;-72
2022/08/23 11:24:21;;;;;;;5.57;3.05;;;26.40;98.80;;;;;;5026467;28;20044;-72
2022/08/23 11:26:46;;;;;;;6.40;3.25;;;26.40;99.20;;;;;;5047244;28;20429;-72
2022/08/23 11:29:22;;;;;;;7.35;3.05;;;26.40;98.70;;;;;;5023186;28;20087;-72
2022/08/23 11:32:05;;;;;;;5.78;2.88;;;26.40;98.80;;;;;;5021900;28;20037;-72
2022/08/23 11:34:46;;;;;;;7.55;2.83;;;26.40;98.50;;;;;;5048916;28;20048;-72
2022/08/23 11:37:17;;;;;;;6.70;2.85;;;26.40;98.10;;;;;;5026087;28;20041;-72
2022/08/23 11:39:58;;;;;;;7.65;3.20;;;26.40;98.20;;;;;;5047695;28;20063;-72
2022/08/23 11:42:38;;;;;;;5.65;2.90;;;26.50;96.30;;;;;;5036013;28;20055;-72
2022/08/23 11:45:36;;;;;;;6.78;2.88;;;26.50;96.50;;;;;;5049235;28;20045;-72
2022/08/23 11:48:18;;;;;;;6.45;2.75;;;26.50;96.50;;;;;;5045198;28;20053;-72
2022/08/23 11:51:12;;;;;;;7.40;3.30;;;26.60;96.20;;;;;;5076370;28;20044;-72
2022/08/23 11:53:52;;;;;;;6.45;2.90;;;26.60;96.20;;;;;;5036584;28;20037;-72
2022/08/23 11:56:52;;;;;;;6.22;2.78;;;26.70;94.90;;;;;;5034503;28;20502;-72
2022/08/23 11:59:54;;;;;;;8.43;3.10;;;26.70;93.90;;;;;;5051450;28;20084;-72
2022/08/23 12:03:02;;;;;;;7.95;3.33;;;26.70;93.70;;;;;;5064999;28;20087;-72
2022/08/23 12:05:37;;;;;;;7.90;2.80;;;26.70;93.10;;;;;;5051105;28;20037;-72
2022/08/23 12:08:03;;;;;;;6.65;2.83;;;26.70;94.20;;;;;;5033688;28;20041;-72
2022/08/23 12:10:40;;;;;;;4.88;2.70;;;26.60;94.90;;;;;;5046371;28;20055;-71
2022/08/23 12:13:18;;;;;;;5.90;2.70;;;26.70;94.20;;;;;;5043095;28;20037;-71
2022/08/23 12:16:18;;;;;;;6.22;2.78;;;26.90;91.60;;;;;;5048801;28;20044;-72
2022/08/23 12:18:51;;;;;;;6.93;2.88;;;26.90;92.90;;;;;;5065353;28;20416;-71
2022/08/23 12:21:33;;;;;;;8.15;3.20;;;26.90;93.50;;;;;;5049204;28;20471;-71
2022/08/23 12:24:27;;;;;;;5.40;2.33;;;26.80;93.80;;;;;;5035792;28;20120;-72
2022/08/23 12:27:08;;;;;;;4.68;2.63;;;26.70;93.20;;;;;;5085334;28;20420;-72
2022/08/23 12:30:12;;;;;;;6.97;3.30;;;26.60;94.60;;;;;;5035588;28;20037;-80
2022/08/23 12:33:03;;;;;;;6.82;2.70;;;26.50;94.80;;;;;;4970048;28;20093;-77
2022/08/23 12:35:38;;;;;;;5.50;2.60;;;26.50;94.10;;;;;;5000829;28;20040;-77
2022/08/23 12:38:23;;;;;;;6.45;2.60;;;26.50;95.10;;;;;;5015766;28;20041;-77
2022/08/23 12:40:51;;;;;;;8.38;2.55;;;26.50;94.30;;;;;;5017059;28;20040;-80
2022/08/23 12:43:22;;;;;;;5.75;2.30;;;26.70;92.30;;;;;;5050391;28;20417;-70
2022/08/23 12:45:59;;;;;;;;;;;26.80;90.60;;;;;;5053566;28;20524;-70
2022/08/23 12:48:31;;;;;;;5.60;2.53;;;26.90;93.00;;;;;;5046002;28;19917;-73
2022/08/23 12:51:02;;;;;;;;;;;26.90;91.60;;;;;;5057125;28;20029;-73
2022/08/23 12:53:31;;;;;;;5.93;2.40;;;26.90;91.00;;;;;;5053098;28;19917;-72
2022/08/23 12:56:09;;;;;;;6.68;2.40;;;26.90;90.80;;;;;;5036912;28;20055;-73
2022/08/23 12:58:38;;;;;;;8.05;2.90;;;26.90;91.60;;;;;;5025898;28;20041;-73
2022/08/23 13:01:28;;;;;;;8.20;2.58;;;26.90;91.00;;;;;;5050042;28;20515;-69
2022/08/23 13:04:02;;;;;;;5.30;2.50;;;27.00;89.60;;;;;;5026708;28;20512;-71
2022/08/23 13:06:38;;;;;;;7.28;2.78;;;27.00;89.40;;;;;;5062125;28;20114;-72
2022/08/23 13:09:25;;;;;;;7.75;2.40;;;26.90;91.40;;;;;;5030477;28;20065;-71
2022/08/23 13:11:51;;;;;;;8.15;2.58;;;26.90;92.20;;;;;;5036007;28;20040;-71
2022/08/23 13:14:48;;;;;;;5.68;2.53;;;27.00;88.90;;;;;;5035933;28;20498;-72
2022/08/23 13:17:32;;;;;;;7.38;2.90;;;26.90;90.40;;;;;;5048867;28;20041;-72